createdAt,value
2023-04-13T00:02:40.403Z,76.90
2023-04-13T00:06:42.783Z,70.72
2023-04-13T00:10:46.131Z,78.28
2023-04-13T00:14:50.797Z,75.80
2023-04-13T00:18:52.449Z,80.78
2023-04-13T00:22:54.462Z,70.32
2023-04-13T00:26:57.184Z,80.47
2023-04-13T00:30:59.559Z,73.88
2023-04-13T00:35:02.034Z,69.63
2023-04-13T00:39:04.855Z,72.68
2023-04-13T00:43:06.956Z,71.20
2023-04-13T00:47:09.100Z,78.47
2023-04-13T00:51:13.637Z,79.78
2023-04-13T00:55:20.848Z,72.82
2023-04-13T00:59:23.554Z,72.22
2023-04-13T01:03:29.859Z,76.63
2023-04-13T01:07:59.490Z,68.32
2023-04-13T01:12:47.089Z,66.63
2023-04-13T01:16:56.916Z,66.68
2023-04-13T01:21:00.587Z,78.03
2023-04-13T01:25:22.363Z,71.10
2023-04-13T01:29:27.134Z,66.82
2023-04-13T01:33:30.809Z,67.93
2023-04-13T01:37:33.982Z,81.63
2023-04-13T01:41:36.451Z,74.07
2023-04-13T01:45:47.679Z,74.93
2023-04-13T01:49:57.777Z,77.68
2023-04-13T01:54:16.540Z,66.15
2023-04-13T01:58:23.501Z,73.43
2023-04-13T02:02:32.807Z,79.78
2023-04-13T02:06:36.961Z,72.65
2023-04-13T02:10:42.877Z,62.40
2023-04-13T02:14:46.130Z,72.50
2023-04-13T02:18:49.237Z,66.50
2023-04-13T02:22:51.374Z,68.15
2023-04-13T02:26:53.378Z,81.00
2023-04-13T02:30:57.031Z,72.15
2023-04-13T02:35:02.284Z,66.22
2023-04-13T02:39:05.039Z,64.82
2023-04-13T02:43:10.058Z,79.32
2023-04-13T02:47:13.675Z,77.18
2023-04-13T02:51:16.062Z,81.70
2023-04-13T02:55:19.044Z,83.65
2023-04-13T02:59:30.805Z,72.93
2023-04-13T03:03:33.563Z,66.63
2023-04-13T03:07:36.548Z,79.97
2023-04-13T03:11:40.187Z,68.18
2023-04-13T03:15:56.092Z,64.85
2023-04-13T03:20:00.874Z,71.25
2023-04-13T03:24:02.981Z,71.25
2023-04-13T03:28:06.104Z,71.28
2023-04-13T03:36:21.350Z,71.22
2023-04-13T03:40:24.326Z,75.68
2023-04-13T03:44:28.051Z,69.43
2023-04-13T03:48:30.874Z,77.88
2023-04-13T03:52:35.237Z,73.65
2023-04-13T03:56:38.827Z,80.82
2023-04-13T04:00:43.408Z,75.88
2023-04-13T04:05:06.042Z,79.15
2023-04-13T04:09:10.183Z,72.55
2023-04-13T04:13:17.368Z,73.53
2023-04-13T04:17:23.972Z,74.90
2023-04-13T04:21:33.868Z,80.57
2023-04-13T04:25:40.529Z,97.55
2023-04-13T04:29:49.115Z,98.75
2023-04-13T04:34:02.426Z,96.45
2023-04-13T04:38:09.248Z,124.53
2023-04-13T04:42:12.685Z,126.55
2023-04-13T04:46:16.197Z,108.40
2023-04-13T04:50:24.266Z,115.00
2023-04-13T04:54:33.415Z,108.20
2023-04-13T04:58:35.945Z,102.82
2023-04-13T05:02:38.246Z,100.20
2023-04-13T05:06:44.676Z,96.47
2023-04-13T05:10:51.903Z,99.78
2023-04-13T05:14:54.830Z,91.25
2023-04-13T05:18:57.305Z,85.30
2023-04-13T05:23:19.495Z,88.10
2023-04-13T05:27:28.403Z,78.85
2023-04-13T05:31:31.489Z,88.50
2023-04-13T05:35:33.824Z,83.60
2023-04-13T05:39:37.907Z,84.45
2023-04-13T05:43:40.805Z,91.65
2023-04-13T05:47:45.241Z,83.85
2023-04-13T05:51:49.835Z,78.32
2023-04-13T05:55:53.152Z,82.97
2023-04-13T05:59:55.628Z,71.90
2023-04-13T06:04:03.774Z,74.32
2023-04-13T06:08:10.419Z,71.10
2023-04-13T06:12:14.012Z,76.45
2023-04-13T06:16:16.101Z,66.28
2023-04-13T06:20:18.575Z,55.60
2023-04-13T06:24:20.989Z,55.67
2023-04-13T06:28:28.933Z,57.38
2023-04-13T06:32:32.889Z,48.65
2023-04-13T06:36:35.734Z,46.50
2023-04-13T06:40:38.740Z,44.17
2023-04-13T06:44:43.795Z,34.33
2023-04-13T06:48:46.782Z,36.00
2023-04-13T06:52:50.883Z,27.70
2023-04-13T06:56:53.087Z,32.30
2023-04-13T07:00:55.208Z,26.38
2023-04-13T07:04:59.133Z,27.10
2023-04-13T07:09:02.454Z,28.92
2023-04-13T07:13:07.529Z,28.92
2023-04-13T07:17:11.345Z,29.05
2023-04-13T07:21:15.372Z,29.40
2023-04-13T07:25:30.911Z,26.38
2023-04-13T07:29:32.843Z,27.83
2023-04-13T07:33:39.216Z,25.08
2023-04-13T07:37:42.496Z,30.65
2023-04-13T07:41:46.474Z,25.90
2023-04-13T07:45:52.931Z,24.02
2023-04-13T07:49:55.634Z,25.90
2023-04-13T07:53:58.674Z,27.25
2023-04-13T07:58:03.718Z,22.80
2023-04-13T08:02:07.242Z,23.63
2023-04-13T08:06:12.591Z,25.42
2023-04-13T08:10:15.166Z,26.75
2023-04-13T08:14:17.422Z,25.48
2023-04-13T08:18:24.110Z,25.70
2023-04-13T08:22:26.261Z,25.48
2023-04-13T08:26:29.061Z,25.15
2023-04-13T08:30:35.541Z,23.27
2023-04-13T08:34:38.643Z,25.40
2023-04-13T08:38:40.995Z,19.30
2023-04-13T08:42:43.522Z,22.65
2023-04-13T08:46:46.681Z,19.08
2023-04-13T08:50:56.882Z,24.55
2023-04-13T08:55:02.345Z,23.30
2023-04-13T08:59:07.529Z,27.27
2023-04-13T09:03:14.109Z,20.77
2023-04-13T09:07:26.711Z,21.25
2023-04-13T09:11:32.801Z,22.48
2023-04-13T09:15:38.981Z,22.55
2023-04-13T09:19:57.302Z,23.08
2023-04-13T09:23:59.761Z,24.23
2023-04-13T09:28:01.802Z,23.25
2023-04-13T09:32:06.688Z,22.10
2023-04-13T09:36:10.548Z,22.05
2023-04-13T09:40:14.622Z,20.98
2023-04-13T09:44:22.209Z,18.52
2023-04-13T09:48:24.519Z,17.83
2023-04-13T09:52:26.667Z,21.77
2023-04-13T09:56:29.187Z,18.25
2023-04-13T10:00:31.883Z,22.30
2023-04-13T10:04:34.940Z,21.15
2023-04-13T10:08:41.948Z,20.38
2023-04-13T10:12:52.804Z,21.38
2023-04-13T10:17:05.762Z,19.48
2023-04-13T10:21:10.066Z,16.80
2023-04-13T10:25:29.173Z,18.65
2023-04-13T10:29:35.322Z,15.98
2023-04-13T10:33:50.858Z,16.63
2023-04-13T10:37:59.325Z,19.38
2023-04-13T10:42:02.458Z,19.42
2023-04-13T10:46:13.940Z,16.00
2023-04-13T10:50:24.318Z,15.40
2023-04-13T10:54:27.409Z,18.48
2023-04-13T10:58:33.215Z,14.73
2023-04-13T11:02:35.976Z,22.00
2023-04-13T11:06:38.950Z,15.98
2023-04-13T11:10:41.660Z,17.05
2023-04-13T11:14:50.821Z,14.23
2023-04-13T11:19:04.297Z,13.55
2023-04-13T11:23:18.055Z,19.55
2023-04-13T11:27:21.789Z,12.52
2023-04-13T11:31:39.095Z,9.45
2023-04-13T11:35:49.773Z,10.48
2023-04-13T11:39:52.224Z,10.82
2023-04-13T11:43:54.643Z,9.57
2023-04-13T11:47:57.636Z,9.60
2023-04-13T11:52:01.727Z,8.80
2023-04-13T11:56:04.375Z,9.13
2023-04-13T12:00:16.441Z,7.85
2023-04-13T12:04:18.975Z,8.13
2023-04-13T12:08:26.078Z,9.18
2023-04-13T12:12:51.311Z,9.95
2023-04-13T12:21:01.240Z,6.50
2023-04-13T12:25:24.421Z,9.98
2023-04-13T12:29:26.954Z,11.25
2023-04-13T12:33:29.014Z,11.23
2023-04-13T12:37:31.053Z,11.32
2023-04-13T12:41:33.524Z,18.50
2023-04-13T12:45:35.514Z,11.68
2023-04-13T12:49:37.616Z,9.27
2023-04-13T12:53:39.604Z,8.38
2023-04-13T12:57:41.725Z,9.23
2023-04-13T13:01:43.761Z,12.02
2023-04-13T13:05:45.891Z,7.82
2023-04-13T13:09:47.801Z,9.15
2023-04-13T13:13:49.922Z,6.97
2023-04-13T13:17:51.991Z,8.57
2023-04-13T13:21:54.489Z,7.90
2023-04-13T13:26:17.862Z,11.57
2023-04-13T13:30:18.745Z,8.13
2023-04-13T13:34:21.036Z,10.13
2023-04-13T13:38:23.140Z,8.65
2023-04-13T13:42:25.278Z,7.25
2023-04-13T13:46:27.868Z,8.88
2023-04-13T13:50:31.615Z,10.73
2023-04-13T13:54:36.847Z,7.65
2023-04-13T13:58:38.963Z,4.95
2023-04-13T14:02:41.397Z,8.52
2023-04-13T14:06:43.435Z,6.22
2023-04-13T14:10:48.660Z,6.03
2023-04-13T14:14:50.856Z,6.47
2023-04-13T14:18:53.247Z,5.75
2023-04-13T14:22:55.484Z,8.70
2023-04-13T14:26:57.825Z,6.82
2023-04-13T14:30:59.863Z,5.65
2023-04-13T14:35:02.199Z,4.47
2023-04-13T14:39:05.273Z,5.03
2023-04-13T14:43:07.916Z,6.82
2023-04-13T14:47:12.221Z,6.00
2023-04-13T14:51:17.461Z,5.35
2023-04-13T14:55:19.720Z,13.13
2023-04-13T14:59:22.139Z,7.18
2023-04-13T15:03:24.460Z,6.32
2023-04-13T15:07:29.933Z,6.93
2023-04-13T15:11:32.234Z,4.53
2023-04-13T15:15:36.836Z,6.53
2023-04-13T15:19:38.822Z,5.65
2023-04-13T15:23:44.192Z,6.32
2023-04-13T15:27:56.737Z,5.10
2023-04-13T15:32:00.401Z,4.68
2023-04-13T15:36:02.743Z,8.00
2023-04-13T15:40:07.896Z,4.97
2023-04-13T15:44:11.070Z,5.00
2023-04-13T15:48:13.423Z,4.72
2023-04-13T15:52:15.482Z,5.28
2023-04-13T15:56:17.675Z,5.20
2023-04-13T16:00:20.701Z,7.40
2023-04-13T16:04:23.611Z,6.85
2023-04-13T16:08:25.943Z,6.22
2023-04-13T16:12:32.320Z,9.02
2023-04-13T16:16:46.580Z,8.88
2023-04-13T16:20:49.834Z,8.50
2023-04-13T16:24:51.832Z,9.27
2023-04-13T16:28:54.411Z,12.75
2023-04-13T16:32:56.666Z,8.25
2023-04-13T16:36:58.995Z,12.02
2023-04-13T16:41:01.636Z,9.35
2023-04-13T16:45:03.833Z,10.60
2023-04-13T16:49:06.218Z,11.68
2023-04-13T16:53:08.251Z,15.05
2023-04-13T16:57:10.191Z,10.65
2023-04-13T17:01:12.491Z,12.05
2023-04-13T17:05:15.102Z,11.73
2023-04-13T17:09:17.088Z,12.35
2023-04-13T17:13:19.181Z,15.65
2023-04-13T17:17:21.304Z,13.73
2023-04-13T17:21:23.722Z,18.02
2023-04-13T17:25:26.044Z,13.52
2023-04-13T17:29:28.618Z,16.73
2023-04-13T17:33:30.781Z,17.75
2023-04-13T17:37:33.051Z,21.33
2023-04-13T17:41:35.440Z,15.90
2023-04-13T17:45:40.368Z,15.73
2023-04-13T17:49:43.702Z,14.05
2023-04-13T17:53:46.025Z,17.70
2023-04-13T17:57:48.450Z,17.90
2023-04-13T18:01:53.710Z,17.83
2023-04-13T18:05:56.533Z,21.60
2023-04-13T18:09:58.573Z,25.00
2023-04-13T18:14:02.814Z,21.02
2023-04-13T18:18:05.696Z,28.00
2023-04-13T18:22:08.157Z,30.98
2023-04-13T18:26:17.490Z,32.60
2023-04-13T18:30:20.993Z,44.92
2023-04-13T18:34:23.302Z,61.35
2023-04-13T18:38:25.882Z,121.15
2023-04-13T18:42:28.228Z,139.40
2023-04-13T18:46:30.585Z,111.20
2023-04-13T18:50:32.604Z,80.65
2023-04-13T18:54:34.830Z,67.38
2023-04-13T18:58:37.363Z,53.83
2023-04-13T19:02:41.390Z,53.63
2023-04-13T19:06:44.363Z,47.03
2023-04-13T19:10:46.630Z,45.30
2023-04-13T19:14:48.907Z,49.05
2023-04-13T19:18:51.239Z,49.92
2023-04-13T19:22:53.631Z,53.40
2023-04-13T19:26:56.637Z,54.63
2023-04-13T19:30:58.978Z,53.88
2023-04-13T19:35:01.247Z,51.47
2023-04-13T19:39:08.161Z,50.00
2023-04-13T19:43:10.671Z,46.00
2023-04-13T19:47:12.648Z,39.75
2023-04-13T19:51:14.814Z,43.47
2023-04-13T19:55:16.858Z,48.15
2023-04-13T19:59:19.000Z,39.95
2023-04-13T20:03:21.138Z,46.13
2023-04-13T20:07:23.586Z,43.67
2023-04-13T20:11:25.828Z,43.40
2023-04-13T20:15:31.000Z,43.60
2023-04-13T20:19:36.248Z,43.80
2023-04-13T20:23:38.272Z,43.28
2023-04-13T20:27:42.112Z,39.50
2023-04-13T20:31:44.635Z,35.60
2023-04-13T20:35:46.604Z,37.42
2023-04-13T20:39:53.029Z,37.15
2023-04-13T20:43:55.475Z,35.53
2023-04-13T20:52:24.207Z,40.38
2023-04-13T20:56:26.446Z,44.28
2023-04-13T21:00:28.578Z,45.33
2023-04-13T21:04:31.020Z,37.60
2023-04-13T21:08:33.202Z,36.88
2023-04-13T21:12:35.729Z,36.83
2023-04-13T21:16:37.765Z,39.70
2023-04-13T21:20:40.967Z,43.40
2023-04-13T21:24:42.948Z,45.20
2023-04-13T21:28:45.006Z,42.78
2023-04-13T21:32:47.021Z,38.60
2023-04-13T21:36:52.010Z,46.42
2023-04-13T21:40:54.173Z,32.90
2023-04-13T21:44:57.129Z,36.17
2023-04-13T21:48:59.458Z,33.15
2023-04-13T21:53:01.652Z,35.65
2023-04-13T21:57:04.495Z,36.50
2023-04-13T22:01:07.297Z,32.35
2023-04-13T22:05:11.426Z,33.72
2023-04-13T22:09:13.774Z,27.85
2023-04-13T22:13:15.974Z,32.67
2023-04-13T22:17:17.511Z,32.38
2023-04-13T22:21:19.506Z,28.85
2023-04-13T22:25:25.232Z,27.00
2023-04-13T22:29:27.200Z,29.17
2023-04-13T22:33:31.914Z,29.33
2023-04-13T22:37:35.408Z,29.60
2023-04-13T22:41:37.381Z,27.38
2023-04-13T22:45:39.364Z,28.75
2023-04-13T22:49:41.495Z,25.25
2023-04-13T22:53:43.468Z,26.40
2023-04-13T22:57:45.538Z,28.70
2023-04-13T23:01:47.673Z,23.48
2023-04-13T23:05:49.817Z,24.50
2023-04-13T23:09:53.182Z,27.83
2023-04-13T23:13:55.395Z,25.67
2023-04-13T23:17:57.345Z,28.42
2023-04-13T23:21:59.401Z,27.88
2023-04-13T23:26:01.584Z,28.67
2023-04-13T23:30:04.388Z,27.92
2023-04-13T23:34:06.417Z,29.58
2023-04-13T23:38:08.573Z,26.95
2023-04-13T23:42:10.566Z,30.75
2023-04-13T23:46:13.158Z,31.00
2023-04-13T23:50:17.833Z,29.48
2023-04-13T23:54:19.947Z,25.02
2023-04-13T23:58:21.882Z,30.27
